• Join FlightAware (Why Join?)
  • Login
  • US Flag 
02:06PM EDT


 

Airport Tracker/Info


-or-


 

Live Flight TrackerFlight Track Log ✈ VNR395 ✈ 08-Jun-2013 ✈ KAPF - KMCO

Flight Track Log - Related Links

Times and Time Zones

All times are in EDT time to prevent confusion due to time zone crossing. See the VNR395 flight status page for this flight to view local times or setup timezone preferences in your user account.

Time Position Orientation Groundspeed Altitude Reporting Facility
EDT Latitude Longitude Course Direction KTS MPH feet Rate Location/Type
12:10PM 26.2025 -81.8925 North 239 275 5,500  Level Miami Center
12:11PM 26.2653 -81.8858 North 239 275 8,100 2,400 Climbing Miami Center
12:12PM 26.3367 -81.8797 North 236 272 10,400 2,400 Climbing Miami Center
12:13PM 26.4058 -81.8733 North 242 278 12,900 2,400 Climbing Miami Center
12:14PM 26.4708 -81.8575 12° North 242 278 15,300 1,260 Climbing Miami Center
12:15PM 26.5408 -81.8303 19° North 249 287 15,500 60 Climbing Miami Center
12:16PM 26.6333 -81.8133 North 288 331 15,500  Level Miami Center
12:17PM 26.7236 -81.7983 North 320 368 15,500  Level Miami Center
12:18PM 26.8161 -81.7744 13° North 330 380 15,500  Level Miami Center
12:19PM 26.9081 -81.7692 North 330 380 15,500  Level Miami Center
12:20PM 27.0019 -81.7731 358° North 330 380 15,500  Level Miami Center
12:21PM 27.0922 -81.7558 10° North 330 380 15,500  Level Miami Center
12:22PM 27.1764 -81.7361 12° North 330 380 15,500  Level Miami Center
12:23PM 27.2628 -81.7186 10° North 319 367 15,500  Level Miami Center
12:24PM 27.3425 -81.7033 10° North 301 346 15,500  Level Miami Center
12:25PM 27.4225 -81.6833 13° North 293 337 15,500 -300 Level Miami Center
12:26PM 27.4972 -81.6303 32° Northeast 288 331 14,900 -1,800 Descending Miami Center
12:27PM 27.5556 -81.5742 40° Northeast 277 319 12,000 -2,220 Descending Miami Center
12:28PM 27.6133 -81.5297 34° Northeast 257 296 10,500 -4,800 Descending Miami Center
12:29PM 27.6822 -81.5303 360° North 229 264 2,500 -4,020 Descending Miami Center
12:30PM 27.7506 -81.5422 351° North 238 274 2,500  Level Miami Center
12:31PM 27.8153 -81.5450 358° North 232 267 2,500 -180 Level Miami Center
12:33PM 27.9333 -81.5500 358° North 205 236 2,000 -180 Descending Orlando TRACON
12:34PM 28.0000 -81.5500 360° North 195 224 2,000  Level Orlando TRACON
12:35PM 28.0500 -81.5500 360° North 211 243 2,000  Level Orlando TRACON
12:36PM 28.1000 -81.5167 30° Northeast 231 266 2,000 -60 Level Orlando TRACON
12:37PM 28.1500 -81.5000 16° North 209 241 1,900  Descending Orlando TRACON
12:38PM 28.2167 -81.5000 360° North 192 221 2,000  Climbing Orlando TRACON
12:39PM 28.2667 -81.4833 16° North 203 234 2,000  Level Orlando TRACON
12:40PM 28.3333 -81.4833 360° North 202 232 2,000 -60 Level Orlando TRACON
12:41PM 28.3833 -81.4667 16° North 199 229 1,900 -300 Descending Orlando TRACON
12:42PM 28.4167 -81.4167 53° Northeast 207 238 1,500 -240 Descending Orlando TRACON
12:43PM 28.4500 -81.3667 53° Northeast 177 204 1,500 -240 Level Orlando TRACON
12:45PM 28.4833 -81.3500 24° Northeast 125 144 1,000 -420 Descending Orlando TRACON
12:47PM 28.4294 -81.3090 120° Southeast  Level Estimated
12:54PM 28.4294 -81.3090 120° Southeast  Level Estimated